sensor_id;sensor_type;location;lat;lon;timestamp;pressure;altitude;pressure_sealevel;temperature;humidity
27613;BME280;15036;48.094;-1.690;2022-07-30T00:00:59;101423.00;;;24.86;48.29
27613;BME280;15036;48.094;-1.690;2022-07-30T00:03:24;101425.44;;;24.57;49.17
27613;BME280;15036;48.094;-1.690;2022-07-30T00:05:51;101423.44;;;24.38;49.62
27613;BME280;15036;48.094;-1.690;2022-07-30T00:08:19;101420.75;;;23.59;51.68
27613;BME280;15036;48.094;-1.690;2022-07-30T00:10:44;101415.94;;;23.86;50.69
27613;BME280;15036;48.094;-1.690;2022-07-30T00:13:10;101421.00;;;23.99;50.11
27613;BME280;15036;48.094;-1.690;2022-07-30T00:15:35;101412.63;;;23.94;51.14
27613;BME280;15036;48.094;-1.690;2022-07-30T00:18:01;101410.38;;;24.63;49.32
27613;BME280;15036;48.094;-1.690;2022-07-30T00:20:27;101405.13;;;24.77;48.52
27613;BME280;15036;48.094;-1.690;2022-07-30T00:22:52;101413.19;;;24.63;49.18
27613;BME280;15036;48.094;-1.690;2022-07-30T00:25:18;101416.72;;;24.34;49.67
27613;BME280;15036;48.094;-1.690;2022-07-30T00:27:43;101408.56;;;24.17;50.24
27613;BME280;15036;48.094;-1.690;2022-07-30T00:30:09;101404.63;;;24.13;50.59
27613;BME280;15036;48.094;-1.690;2022-07-30T00:32:35;101404.00;;;24.01;50.41
27613;BME280;15036;48.094;-1.690;2022-07-30T00:35:01;101415.03;;;24.28;50.15
27613;BME280;15036;48.094;-1.690;2022-07-30T00:37:26;101408.31;;;24.29;49.95
27613;BME280;15036;48.094;-1.690;2022-07-30T00:39:52;101412.63;;;23.94;50.71
27613;BME280;15036;48.094;-1.690;2022-07-30T00:42:17;101413.97;;;24.44;49.65
27613;BME280;15036;48.094;-1.690;2022-07-30T00:44:50;101409.59;;;24.73;48.80
27613;BME280;15036;48.094;-1.690;2022-07-30T00:47:16;101408.41;;;24.59;49.48
27613;BME280;15036;48.094;-1.690;2022-07-30T00:49:42;101408.41;;;24.59;49.32
27613;BME280;15036;48.094;-1.690;2022-07-30T00:52:07;101403.47;;;24.76;48.74
27613;BME280;15036;48.094;-1.690;2022-07-30T00:54:32;101403.13;;;24.67;49.00
27613;BME280;15036;48.094;-1.690;2022-07-30T00:56:59;101406.16;;;24.51;49.25
27613;BME280;15036;48.094;-1.690;2022-07-30T00:59:24;101410.34;;;24.43;49.85
27613;BME280;15036;48.094;-1.690;2022-07-30T01:01:52;101394.97;;;24.41;49.86
27613;BME280;15036;48.094;-1.690;2022-07-30T01:04:17;101389.44;;;24.61;49.30
27613;BME280;15036;48.094;-1.690;2022-07-30T01:06:42;101389.97;;;24.53;49.46
27613;BME280;15036;48.094;-1.690;2022-07-30T01:09:08;101396.66;;;24.47;49.42
27613;BME280;15036;48.094;-1.690;2022-07-30T01:11:38;101397.22;;;24.49;49.47
27613;BME280;15036;48.094;-1.690;2022-07-30T01:14:05;101390.25;;;23.38;52.24
27613;BME280;15036;48.094;-1.690;2022-07-30T01:16:32;101400.00;;;23.77;51.72
27613;BME280;15036;48.094;-1.690;2022-07-30T01:18:59;101399.78;;;23.93;50.98
27613;BME280;15036;48.094;-1.690;2022-07-30T01:21:48;101403.88;;;24.33;50.30
27613;BME280;15036;48.094;-1.690;2022-07-30T01:24:26;101408.59;;;24.27;50.72
27613;BME280;15036;48.094;-1.690;2022-07-30T01:26:53;101398.13;;;23.92;51.40
27613;BME280;15036;48.094;-1.690;2022-07-30T01:29:21;101397.16;;;24.24;50.90
27613;BME280;15036;48.094;-1.690;2022-07-30T01:31:49;101389.94;;;24.43;50.63
27613;BME280;15036;48.094;-1.690;2022-07-30T01:34:17;101380.25;;;23.93;51.74
27613;BME280;15036;48.094;-1.690;2022-07-30T01:36:44;101381.38;;;23.92;52.21
27613;BME280;15036;48.094;-1.690;2022-07-30T01:39:11;101392.13;;;24.31;51.35
27613;BME280;15036;48.094;-1.690;2022-07-30T01:41:38;101380.09;;;24.10;51.83
27613;BME280;15036;48.094;-1.690;2022-07-30T01:44:06;101379.31;;;24.35;51.11
27613;BME280;15036;48.094;-1.690;2022-07-30T01:46:32;101379.63;;;24.38;51.38
27613;BME280;15036;48.094;-1.690;2022-07-30T01:48:59;101374.31;;;24.42;51.27
27613;BME280;15036;48.094;-1.690;2022-07-30T01:51:26;101378.19;;;24.31;51.23
27613;BME280;15036;48.094;-1.690;2022-07-30T01:53:52;101376.56;;;24.55;50.96
27613;BME280;15036;48.094;-1.690;2022-07-30T01:56:22;101380.25;;;23.93;52.15
27613;BME280;15036;48.094;-1.690;2022-07-30T01:58:49;101375.31;;;24.05;52.56
27613;BME280;15036;48.094;-1.690;2022-07-30T02:01:16;101379.00;;;23.64;53.75
27613;BME280;15036;48.094;-1.690;2022-07-30T02:03:42;101379.72;;;24.01;52.67
27613;BME280;15036;48.094;-1.690;2022-07-30T02:06:16;101372.09;;;23.82;53.31
27613;BME280;15036;48.094;-1.690;2022-07-30T02:08:50;101384.25;;;24.02;52.75
27613;BME280;15036;48.094;-1.690;2022-07-30T02:11:17;101388.78;;;23.67;53.99
27613;BME280;15036;48.094;-1.690;2022-07-30T02:14:25;101386.75;;;23.57;54.64
27613;BME280;15036;48.094;-1.690;2022-07-30T02:16:53;101392.50;;;23.87;52.78
27613;BME280;15036;48.094;-1.690;2022-07-30T02:19:25;101383.84;;;23.89;52.86
27613;BME280;15036;48.094;-1.690;2022-07-30T02:22:01;101380.34;;;23.57;53.32
27613;BME280;15036;48.094;-1.690;2022-07-30T02:24:29;101382.75;;;23.90;52.34
27613;BME280;15036;48.094;-1.690;2022-07-30T02:27:00;101391.44;;;23.15;54.46
27613;BME280;15036;48.094;-1.690;2022-07-30T02:29:27;101373.06;;;23.51;53.76
27613;BME280;15036;48.094;-1.690;2022-07-30T02:31:55;101378.72;;;23.66;53.40
27613;BME280;15036;48.094;-1.690;2022-07-30T02:34:22;101384.72;;;23.94;52.79
27613;BME280;15036;48.094;-1.690;2022-07-30T02:36:50;101386.94;;;23.46;53.91
27613;BME280;15036;48.094;-1.690;2022-07-30T02:39:17;101392.78;;;23.86;53.33
27613;BME280;15036;48.094;-1.690;2022-07-30T02:41:45;101388.50;;;23.73;53.87
27613;BME280;15036;48.094;-1.690;2022-07-30T02:44:15;101386.22;;;23.65;54.31
27613;BME280;15036;48.094;-1.690;2022-07-30T02:46:42;101380.00;;;24.00;52.90
27613;BME280;15036;48.094;-1.690;2022-07-30T02:49:09;101380.00;;;24.00;53.67
27613;BME280;15036;48.094;-1.690;2022-07-30T02:51:36;101382.88;;;24.10;53.17
27613;BME280;15036;48.094;-1.690;2022-07-30T02:54:03;101395.44;;;24.18;53.31
27613;BME280;15036;48.094;-1.690;2022-07-30T02:56:30;101396.13;;;23.88;54.45
27613;BME280;15036;48.094;-1.690;2022-07-30T02:58:56;101395.78;;;23.74;54.91
27613;BME280;15036;48.094;-1.690;2022-07-30T03:01:22;101396.41;;;23.91;54.67
27613;BME280;15036;48.094;-1.690;2022-07-30T03:03:50;101386.41;;;23.95;54.26
27613;BME280;15036;48.094;-1.690;2022-07-30T03:06:17;101393.19;;;24.04;54.18
27613;BME280;15036;48.094;-1.690;2022-07-30T03:08:44;101400.78;;;23.72;54.77
27613;BME280;15036;48.094;-1.690;2022-07-30T03:11:10;101407.81;;;23.85;54.63
27613;BME280;15036;48.094;-1.690;2022-07-30T03:13:36;101404.50;;;23.88;54.53
27613;BME280;15036;48.094;-1.690;2022-07-30T03:16:03;101407.91;;;23.53;55.37
27613;BME280;15036;48.094;-1.690;2022-07-30T03:18:33;101408.44;;;23.97;54.75
27613;BME280;15036;48.094;-1.690;2022-07-30T03:21:00;101414.16;;;23.34;56.50
27613;BME280;15036;48.094;-1.690;2022-07-30T03:23:28;101419.91;;;22.90;58.00
27613;BME280;15036;48.094;-1.690;2022-07-30T03:26:00;101409.47;;;22.76;59.04
27613;BME280;15036;48.094;-1.690;2022-07-30T03:28:28;101414.31;;;23.17;57.79
27613;BME280;15036;48.094;-1.690;2022-07-30T03:30:55;101409.50;;;23.07;58.37
27613;BME280;15036;48.094;-1.690;2022-07-30T03:33:22;101411.59;;;23.27;57.75
27613;BME280;15036;48.094;-1.690;2022-07-30T03:35:48;101405.38;;;23.47;57.56
27613;BME280;15036;48.094;-1.690;2022-07-30T03:38:15;101402.38;;;23.58;57.44
27613;BME280;15036;48.094;-1.690;2022-07-30T03:40:42;101399.38;;;23.70;57.35
27613;BME280;15036;48.094;-1.690;2022-07-30T03:43:09;101402.09;;;23.60;57.47
27613;BME280;15036;48.094;-1.690;2022-07-30T03:45:37;101396.91;;;23.78;57.07
27613;BME280;15036;48.094;-1.690;2022-07-30T03:48:06;101397.78;;;23.79;56.93
27613;BME280;15036;48.094;-1.690;2022-07-30T03:50:34;101405.34;;;23.93;56.49
27613;BME280;15036;48.094;-1.690;2022-07-30T03:53:03;101405.06;;;23.95;56.83
27613;BME280;15036;48.094;-1.690;2022-07-30T03:55:29;101401.53;;;23.58;57.95
27613;BME280;15036;48.094;-1.690;2022-07-30T03:57:55;101395.88;;;23.48;58.26
27613;BME280;15036;48.094;-1.690;2022-07-30T04:00:21;101402.31;;;23.48;58.48
27613;BME280;15036;48.094;-1.690;2022-07-30T04:02:48;101393.16;;;23.53;58.66
27613;BME280;15036;48.094;-1.690;2022-07-30T04:05:14;101397.78;;;23.37;59.12
27613;BME280;15036;48.094;-1.690;2022-07-30T04:07:40;101393.72;;;23.60;58.33
27613;BME280;15036;48.094;-1.690;2022-07-30T04:10:06;101392.84;;;23.49;58.49
27613;BME280;15036;48.094;-1.690;2022-07-30T04:12:32;101400.47;;;23.27;59.46
27613;BME280;15036;48.094;-1.690;2022-07-30T04:14:58;101397.78;;;23.37;59.22
27613;BME280;15036;48.094;-1.690;2022-07-30T04:17:28;101398.03;;;23.36;58.93
27613;BME280;15036;48.094;-1.690;2022-07-30T04:20:00;101403.94;;;23.07;60.02
27613;BME280;15036;48.094;-1.690;2022-07-30T04:22:29;101412.88;;;23.14;60.01
27613;BME280;15036;48.094;-1.690;2022-07-30T04:24:56;101405.19;;;23.26;59.60
27613;BME280;15036;48.094;-1.690;2022-07-30T04:27:22;101405.38;;;23.47;58.85
27613;BME280;15036;48.094;-1.690;2022-07-30T04:29:50;101407.75;;;23.70;58.02
27613;BME280;15036;48.094;-1.690;2022-07-30T04:32:17;101413.09;;;23.76;57.76
27613;BME280;15036;48.094;-1.690;2022-07-30T04:34:47;101413.44;;;23.95;57.21
27613;BME280;15036;48.094;-1.690;2022-07-30T04:37:15;101415.41;;;23.94;57.06
27613;BME280;15036;48.094;-1.690;2022-07-30T04:39:41;101403.19;;;24.00;56.84
27613;BME280;15036;48.094;-1.690;2022-07-30T04:42:06;101416.16;;;23.80;57.45
27613;BME280;15036;48.094;-1.690;2022-07-30T04:44:31;101412.00;;;23.87;57.11
27613;BME280;15036;48.094;-1.690;2022-07-30T04:46:58;101417.94;;;23.49;57.69
27613;BME280;15036;48.094;-1.690;2022-07-30T04:49:24;101414.38;;;23.64;57.39
27613;BME280;15036;48.094;-1.690;2022-07-30T04:51:52;101415.59;;;23.83;56.91
27613;BME280;15036;48.094;-1.690;2022-07-30T04:54:19;101425.91;;;23.36;58.26
27613;BME280;15036;48.094;-1.690;2022-07-30T04:56:46;101422.28;;;23.77;56.73
27613;BME280;15036;48.094;-1.690;2022-07-30T04:59:12;101432.41;;;23.46;57.35
27613;BME280;15036;48.094;-1.690;2022-07-30T05:01:40;101429.69;;;22.93;59.20
27613;BME280;15036;48.094;-1.690;2022-07-30T05:04:07;101433.25;;;22.88;58.89
27613;BME280;15036;48.094;-1.690;2022-07-30T05:06:33;101432.63;;;23.40;57.46
27613;BME280;15036;48.094;-1.690;2022-07-30T05:08:59;101433.44;;;23.35;57.50
27613;BME280;15036;48.094;-1.690;2022-07-30T05:11:25;101427.19;;;23.60;57.15
27613;BME280;15036;48.094;-1.690;2022-07-30T05:13:50;101429.59;;;23.41;57.24
27613;BME280;15036;48.094;-1.690;2022-07-30T05:16:16;101425.47;;;23.22;57.59
27613;BME280;15036;48.094;-1.690;2022-07-30T05:18:42;101430.19;;;23.48;56.85
27613;BME280;15036;48.094;-1.690;2022-07-30T05:21:08;101437.03;;;23.36;57.55
27613;BME280;15036;48.094;-1.690;2022-07-30T05:23:33;101435.72;;;23.11;58.37
27613;BME280;15036;48.094;-1.690;2022-07-30T05:25:59;101441.31;;;23.16;58.12
27613;BME280;15036;48.094;-1.690;2022-07-30T05:28:24;101450.44;;;23.07;58.33
27613;BME280;15036;48.094;-1.690;2022-07-30T05:30:53;101444.72;;;22.65;60.00
27613;BME280;15036;48.094;-1.690;2022-07-30T05:33:22;101449.88;;;22.57;60.28
27613;BME280;15036;48.094;-1.690;2022-07-30T05:35:49;101437.94;;;23.09;58.57
27613;BME280;15036;48.094;-1.690;2022-07-30T05:38:16;101446.56;;;23.40;57.93
27613;BME280;15036;48.094;-1.690;2022-07-30T05:40:42;101453.03;;;23.45;58.09
27613;BME280;15036;48.094;-1.690;2022-07-30T05:43:09;101449.66;;;22.85;59.74
27613;BME280;15036;48.094;-1.690;2022-07-30T05:45:34;101443.16;;;23.33;58.31
27613;BME280;15036;48.094;-1.690;2022-07-30T05:48:00;101445.84;;;23.22;58.43
27613;BME280;15036;48.094;-1.690;2022-07-30T05:50:26;101459.69;;;23.44;57.66
27613;BME280;15036;48.094;-1.690;2022-07-30T05:52:51;101458.19;;;23.32;58.66
27613;BME280;15036;48.094;-1.690;2022-07-30T05:55:16;101454.31;;;23.33;58.45
27613;BME280;15036;48.094;-1.690;2022-07-30T05:57:42;101455.25;;;22.90;59.59
27613;BME280;15036;48.094;-1.690;2022-07-30T06:00:09;101450.56;;;22.64;60.83
27613;BME280;15036;48.094;-1.690;2022-07-30T06:02:35;101453.78;;;23.09;59.87
27613;BME280;15036;48.094;-1.690;2022-07-30T06:05:00;101467.63;;;23.31;59.02
27613;BME280;15036;48.094;-1.690;2022-07-30T06:07:26;101476.75;;;23.21;59.58
27613;BME280;15036;48.094;-1.690;2022-07-30T06:09:52;101470.31;;;22.89;60.81
27613;BME280;15036;48.094;-1.690;2022-07-30T06:12:17;101461.75;;;22.95;60.17
27613;BME280;15036;48.094;-1.690;2022-07-30T06:14:43;101466.00;;;23.03;60.84
27613;BME280;15036;48.094;-1.690;2022-07-30T06:17:08;101467.28;;;23.22;60.30
27613;BME280;15036;48.094;-1.690;2022-07-30T06:19:34;101468.38;;;22.89;61.06
27613;BME280;15036;48.094;-1.690;2022-07-30T06:21:59;101470.56;;;23.46;59.70
27613;BME280;15036;48.094;-1.690;2022-07-30T06:24:25;101473.25;;;23.67;59.38
27613;BME280;15036;48.094;-1.690;2022-07-30T06:26:50;101471.72;;;23.86;58.42
27613;BME280;15036;48.094;-1.690;2022-07-30T06:29:15;101471.22;;;23.99;58.10
27613;BME280;15036;48.094;-1.690;2022-07-30T06:31:41;101465.16;;;24.02;58.31
27613;BME280;15036;48.094;-1.690;2022-07-30T06:34:06;101465.22;;;23.76;58.94
27613;BME280;15036;48.094;-1.690;2022-07-30T06:36:32;101461.91;;;24.31;57.32
27613;BME280;15036;48.094;-1.690;2022-07-30T06:38:57;101466.63;;;24.20;57.66
27613;BME280;15036;48.094;-1.690;2022-07-30T06:41:22;101468.63;;;24.35;57.33
27613;BME280;15036;48.094;-1.690;2022-07-30T06:43:48;101461.00;;;24.10;57.32
27613;BME280;15036;48.094;-1.690;2022-07-30T06:46:15;101470.56;;;24.29;57.13
27613;BME280;15036;48.094;-1.690;2022-07-30T06:48:40;101469.34;;;24.72;56.40
27613;BME280;15036;48.094;-1.690;2022-07-30T06:51:06;101470.41;;;24.61;56.21
27613;BME280;15036;48.094;-1.690;2022-07-30T06:53:32;101463.72;;;24.62;56.38
27613;BME280;15036;48.094;-1.690;2022-07-30T06:55:57;101464.41;;;24.27;56.14
27613;BME280;15036;48.094;-1.690;2022-07-30T06:58:22;101460.94;;;24.62;55.58
27613;BME280;15036;48.094;-1.690;2022-07-30T07:00:48;101459.91;;;24.78;54.54
27613;BME280;15036;48.094;-1.690;2022-07-30T07:03:13;101461.56;;;24.84;54.40
27613;BME280;15036;48.094;-1.690;2022-07-30T07:05:39;101464.91;;;24.86;53.76
27613;BME280;15036;48.094;-1.690;2022-07-30T07:08:04;101462.44;;;25.05;53.22
27613;BME280;15036;48.094;-1.690;2022-07-30T07:10:29;101459.38;;;25.16;52.87
27613;BME280;15036;48.094;-1.690;2022-07-30T07:12:55;101466.13;;;25.40;51.79
27613;BME280;15036;48.094;-1.690;2022-07-30T07:15:20;101466.13;;;25.50;51.40
27613;BME280;15036;48.094;-1.690;2022-07-30T07:17:46;101467.22;;;25.74;51.15
27613;BME280;15036;48.094;-1.690;2022-07-30T07:20:11;101468.34;;;25.58;50.83
27613;BME280;15036;48.094;-1.690;2022-07-30T07:22:37;101470.31;;;25.58;50.57
27613;BME280;15036;48.094;-1.690;2022-07-30T07:25:03;101482.06;;;25.75;50.51
27613;BME280;15036;48.094;-1.690;2022-07-30T07:27:28;101473.91;;;25.78;49.93
27613;BME280;15036;48.094;-1.690;2022-07-30T07:29:54;101472.78;;;25.69;50.35
27613;BME280;15036;48.094;-1.690;2022-07-30T07:32:19;101465.50;;;25.84;50.93
27613;BME280;15036;48.094;-1.690;2022-07-30T07:34:44;101463.28;;;25.91;50.68
27613;BME280;15036;48.094;-1.690;2022-07-30T07:37:10;101463.22;;;26.16;49.90
27613;BME280;15036;48.094;-1.690;2022-07-30T07:39:35;101458.50;;;26.06;49.63
27613;BME280;15036;48.094;-1.690;2022-07-30T07:42:01;101464.94;;;25.92;49.86
27613;BME280;15036;48.094;-1.690;2022-07-30T07:44:26;101471.63;;;25.96;50.17
27613;BME280;15036;48.094;-1.690;2022-07-30T07:46:52;101467.72;;;25.92;50.24
27613;BME280;15036;48.094;-1.690;2022-07-30T07:49:17;101473.06;;;25.78;50.25
27613;BME280;15036;48.094;-1.690;2022-07-30T07:51:42;101476.38;;;26.15;49.51
27613;BME280;15036;48.094;-1.690;2022-07-30T07:54:08;101491.53;;;25.79;49.92
27613;BME280;15036;48.094;-1.690;2022-07-30T07:56:33;101489.22;;;26.26;48.65
27613;BME280;15036;48.094;-1.690;2022-07-30T07:58:59;101499.97;;;25.49;49.72
27613;BME280;15036;48.094;-1.690;2022-07-30T08:01:24;101506.38;;;25.44;50.06
27613;BME280;15036;48.094;-1.690;2022-07-30T08:03:49;101498.00;;;25.44;49.39
27613;BME280;15036;48.094;-1.690;2022-07-30T08:06:15;101496.81;;;25.10;49.06
27613;BME280;15036;48.094;-1.690;2022-07-30T08:08:40;101506.38;;;25.74;47.77
27613;BME280;15036;48.094;-1.690;2022-07-30T08:11:06;101504.66;;;26.14;47.03
27613;BME280;15036;48.094;-1.690;2022-07-30T08:13:32;101510.41;;;26.47;46.04
27613;BME280;15036;48.094;-1.690;2022-07-30T08:15:58;101517.56;;;25.79;46.94
27613;BME280;15036;48.094;-1.690;2022-07-30T08:18:24;101511.03;;;26.34;46.02
27613;BME280;15036;48.094;-1.690;2022-07-30T08:20:49;101517.84;;;25.73;46.85
27613;BME280;15036;48.094;-1.690;2022-07-30T08:23:16;101512.75;;;26.15;45.20
27613;BME280;15036;48.094;-1.690;2022-07-30T08:25:43;101523.66;;;26.22;45.06
27613;BME280;15036;48.094;-1.690;2022-07-30T08:28:09;101520.31;;;26.00;45.58
27613;BME280;15036;48.094;-1.690;2022-07-30T08:30:34;101514.13;;;26.23;45.32
27613;BME280;15036;48.094;-1.690;2022-07-30T08:33:00;101500.03;;;26.58;44.19
27613;BME280;15036;48.094;-1.690;2022-07-30T08:35:25;101504.00;;;26.37;43.79
27613;BME280;15036;48.094;-1.690;2022-07-30T08:37:50;101502.38;;;26.26;44.84
27613;BME280;15036;48.094;-1.690;2022-07-30T08:40:19;101501.25;;;26.32;44.84
27613;BME280;15036;48.094;-1.690;2022-07-30T08:42:45;101501.28;;;26.22;44.67
27613;BME280;15036;48.094;-1.690;2022-07-30T08:45:12;101496.06;;;26.59;43.91
27613;BME280;15036;48.094;-1.690;2022-07-30T08:47:39;101489.56;;;26.79;44.00
27613;BME280;15036;48.094;-1.690;2022-07-30T08:50:06;101499.19;;;27.50;41.83
27613;BME280;15036;48.094;-1.690;2022-07-30T08:52:35;101496.78;;;27.28;42.24
27613;BME280;15036;48.094;-1.690;2022-07-30T08:55:01;101502.91;;;27.02;42.88
27613;BME280;15036;48.094;-1.690;2022-07-30T08:57:30;101506.97;;;27.19;42.57
27613;BME280;15036;48.094;-1.690;2022-07-30T08:59:59;101504.25;;;27.48;41.64
27613;BME280;15036;48.094;-1.690;2022-07-30T09:02:25;101512.50;;;27.34;42.37
27613;BME280;15036;48.094;-1.690;2022-07-30T09:04:51;101504.63;;;27.36;41.60
27613;BME280;15036;48.094;-1.690;2022-07-30T09:07:17;101514.84;;;27.17;41.63
27613;BME280;15036;48.094;-1.690;2022-07-30T09:09:42;101515.84;;;27.36;41.37
27613;BME280;15036;48.094;-1.690;2022-07-30T09:12:43;101517.44;;;27.48;40.64
27613;BME280;15036;48.094;-1.690;2022-07-30T09:15:15;101518.16;;;27.97;40.55
27613;BME280;15036;48.094;-1.690;2022-07-30T09:18:00;101528.69;;;28.34;39.70
27613;BME280;15036;48.094;-1.690;2022-07-30T09:20:36;101529.66;;;27.95;39.75
27613;BME280;15036;48.094;-1.690;2022-07-30T09:23:03;101528.16;;;28.32;39.19
27613;BME280;15036;48.094;-1.690;2022-07-30T09:25:42;101523.53;;;28.17;39.48
27613;BME280;15036;48.094;-1.690;2022-07-30T09:28:10;101526.88;;;28.19;39.02
27613;BME280;15036;48.094;-1.690;2022-07-30T09:30:46;101525.19;;;27.61;40.06
27613;BME280;15036;48.094;-1.690;2022-07-30T09:33:12;101531.06;;;28.21;38.67
27613;BME280;15036;48.094;-1.690;2022-07-30T09:35:40;101524.91;;;28.19;39.18
27613;BME280;15036;48.094;-1.690;2022-07-30T09:38:06;101518.09;;;28.73;37.97
27613;BME280;15036;48.094;-1.690;2022-07-30T09:40:32;101518.78;;;28.65;38.29
27613;BME280;15036;48.094;-1.690;2022-07-30T09:43:08;101522.00;;;28.01;39.10
27613;BME280;15036;48.094;-1.690;2022-07-30T09:45:34;101506.00;;;28.96;37.56
27613;BME280;15036;48.094;-1.690;2022-07-30T09:48:01;101523.53;;;28.88;37.95
27613;BME280;15036;48.094;-1.690;2022-07-30T09:50:27;101511.19;;;28.65;37.86
27613;BME280;15036;48.094;-1.690;2022-07-30T09:52:53;101502.88;;;29.16;37.66
27613;BME280;15036;48.094;-1.690;2022-07-30T09:55:31;101521.34;;;29.22;37.25
27613;BME280;15036;48.094;-1.690;2022-07-30T09:58:02;101525.91;;;28.99;36.77
27613;BME280;15036;48.094;-1.690;2022-07-30T10:00:30;101524.53;;;29.53;36.60
27613;BME280;15036;48.094;-1.690;2022-07-30T10:02:55;101525.97;;;29.50;36.70
27613;BME280;15036;48.094;-1.690;2022-07-30T10:05:21;101522.56;;;29.85;36.11
27613;BME280;15036;48.094;-1.690;2022-07-30T10:07:55;101514.44;;;29.15;37.22
27613;BME280;15036;48.094;-1.690;2022-07-30T10:10:23;101517.78;;;29.86;36.53
27613;BME280;15036;48.094;-1.690;2022-07-30T10:12:51;101525.69;;;29.84;36.57
27613;BME280;15036;48.094;-1.690;2022-07-30T10:15:20;101517.16;;;29.57;36.46
27613;BME280;15036;48.094;-1.690;2022-07-30T10:17:48;101513.84;;;29.68;36.29
27613;BME280;15036;48.094;-1.690;2022-07-30T10:20:14;101511.59;;;29.52;36.30
27613;BME280;15036;48.094;-1.690;2022-07-30T10:22:41;101514.81;;;30.10;35.71
27613;BME280;15036;48.094;-1.690;2022-07-30T10:25:08;101507.84;;;30.21;35.57
27613;BME280;15036;48.094;-1.690;2022-07-30T10:27:33;101508.41;;;29.40;37.44
27613;BME280;15036;48.094;-1.690;2022-07-30T10:30:00;101509.31;;;30.32;35.89
27613;BME280;15036;48.094;-1.690;2022-07-30T10:32:26;101501.56;;;30.10;35.96
27613;BME280;15036;48.094;-1.690;2022-07-30T10:34:51;101504.69;;;30.22;35.68
27613;BME280;15036;48.094;-1.690;2022-07-30T10:37:18;101496.34;;;30.17;35.89
27613;BME280;15036;48.094;-1.690;2022-07-30T10:39:54;101490.63;;;30.63;35.54
27613;BME280;15036;48.094;-1.690;2022-07-30T10:45:26;101493.66;;;30.39;35.87
27613;BME280;15036;48.094;-1.690;2022-07-30T10:47:57;101506.41;;;29.59;36.79
27613;BME280;15036;48.094;-1.690;2022-07-30T10:50:24;101505.97;;;30.43;35.35
27613;BME280;15036;48.094;-1.690;2022-07-30T10:52:56;101508.03;;;31.06;34.07
27613;BME280;15036;48.094;-1.690;2022-07-30T10:55:24;101503.03;;;30.89;34.55
27613;BME280;15036;48.094;-1.690;2022-07-30T10:57:57;101494.66;;;30.98;34.41
27613;BME280;15036;48.094;-1.690;2022-07-30T11:00:22;101490.44;;;31.09;34.34
27613;BME280;15036;48.094;-1.690;2022-07-30T11:03:15;101491.09;;;30.78;34.99
27613;BME280;15036;48.094;-1.690;2022-07-30T11:05:42;101483.22;;;30.40;35.68
27613;BME280;15036;48.094;-1.690;2022-07-30T11:10:54;101482.56;;;31.55;33.67
27613;BME280;15036;48.094;-1.690;2022-07-30T11:21:41;101474.84;;;31.47;33.63
27613;BME280;15036;48.094;-1.690;2022-07-30T11:24:45;101485.09;;;30.85;33.82
27613;BME280;15036;48.094;-1.690;2022-07-30T11:27:50;101474.94;;;31.86;32.73
27613;BME280;15036;48.094;-1.690;2022-07-30T11:32:42;101485.50;;;30.24;35.93
27613;BME280;15036;48.094;-1.690;2022-07-30T11:35:14;101476.50;;;31.70;33.68
27613;BME280;15036;48.094;-1.690;2022-07-30T11:45:46;101483.94;;;31.66;32.76
27613;BME280;15036;48.094;-1.690;2022-07-30T11:48:16;101476.22;;;31.36;33.65
27613;BME280;15036;48.094;-1.690;2022-07-30T11:50:43;101469.31;;;31.64;33.26
27613;BME280;15036;48.094;-1.690;2022-07-30T11:53:16;101481.13;;;31.08;33.95
27613;BME280;15036;48.094;-1.690;2022-07-30T11:55:44;101464.88;;;31.05;33.81
27613;BME280;15036;48.094;-1.690;2022-07-30T12:00:53;101471.44;;;31.01;34.45
27613;BME280;15036;48.094;-1.690;2022-07-30T12:03:21;101456.72;;;32.31;32.37
27613;BME280;15036;48.094;-1.690;2022-07-30T12:05:48;101468.22;;;32.43;32.19
27613;BME280;15036;48.094;-1.690;2022-07-30T12:08:14;101469.06;;;31.74;32.58
27613;BME280;15036;48.094;-1.690;2022-07-30T12:10:41;101466.00;;;31.40;33.18
27613;BME280;15036;48.094;-1.690;2022-07-30T12:13:10;101466.25;;;31.52;32.96
27613;BME280;15036;48.094;-1.690;2022-07-30T12:15:46;101455.34;;;31.90;32.84
27613;BME280;15036;48.094;-1.690;2022-07-30T12:18:14;101466.50;;;31.20;33.28
27613;BME280;15036;48.094;-1.690;2022-07-30T12:23:20;101454.06;;;31.65;32.73
27613;BME280;15036;48.094;-1.690;2022-07-30T12:25:46;101458.09;;;32.03;31.88
27613;BME280;15036;48.094;-1.690;2022-07-30T12:28:19;101443.72;;;32.95;30.66
27613;BME280;15036;48.094;-1.690;2022-07-30T12:30:44;101453.88;;;33.56;29.97
27613;BME280;15036;48.094;-1.690;2022-07-30T12:33:11;101453.81;;;33.99;28.67
27613;BME280;15036;48.094;-1.690;2022-07-30T12:35:47;101455.72;;;33.44;29.74
27613;BME280;15036;48.094;-1.690;2022-07-30T12:38:14;101458.91;;;33.16;30.36
27613;BME280;15036;48.094;-1.690;2022-07-30T12:41:02;101442.88;;;32.95;30.26
27613;BME280;15036;48.094;-1.690;2022-07-30T12:43:50;101450.09;;;34.74;27.87
27613;BME280;15036;48.094;-1.690;2022-07-30T12:46:19;101446.84;;;33.79;29.29
27613;BME280;15036;48.094;-1.690;2022-07-30T12:48:56;101453.38;;;34.47;28.36
27613;BME280;15036;48.094;-1.690;2022-07-30T12:51:23;101443.25;;;34.96;27.30
27613;BME280;15036;48.094;-1.690;2022-07-30T12:53:51;101439.34;;;35.41;26.87
27613;BME280;15036;48.094;-1.690;2022-07-30T12:56:19;101446.38;;;35.56;26.70
27613;BME280;15036;48.094;-1.690;2022-07-30T12:58:45;101438.59;;;35.98;26.04
27613;BME280;15036;48.094;-1.690;2022-07-30T13:01:11;101427.94;;;35.62;26.37
27613;BME280;15036;48.094;-1.690;2022-07-30T13:03:37;101439.66;;;35.28;27.18
27613;BME280;15036;48.094;-1.690;2022-07-30T13:06:23;101434.47;;;36.68;25.44
27613;BME280;15036;48.094;-1.690;2022-07-30T13:11:15;101423.53;;;36.82;24.96
27613;BME280;15036;48.094;-1.690;2022-07-30T13:13:41;101430.44;;;37.48;24.42
27613;BME280;15036;48.094;-1.690;2022-07-30T13:16:07;101426.94;;;38.45;23.35